sensor_id;sensor_type;location;lat;lon;timestamp;pressure;altitude;pressure_sealevel;temperature;humidity
43071;BME280;36278;47.952;21.714;2022-07-10T09:41:43;100062.88;;;26.03;36.51
43071;BME280;36278;47.952;21.714;2022-07-10T09:44:09;100062.44;;;25.81;37.82
43071;BME280;36278;47.952;21.714;2022-07-10T09:46:37;100061.44;;;26.00;37.43
43071;BME280;36278;47.952;21.714;2022-07-10T09:49:14;100062.63;;;25.54;37.47
43071;BME280;36278;47.952;21.714;2022-07-10T09:51:42;100058.19;;;25.35;37.17
43071;BME280;36278;47.952;21.714;2022-07-10T09:54:09;100062.13;;;25.32;39.13
43071;BME280;36278;47.952;21.714;2022-07-10T09:56:46;100064.56;;;24.51;37.99
43071;BME280;36278;47.952;21.714;2022-07-10T09:59:14;100060.44;;;24.48;38.69
43071;BME280;36278;47.952;21.714;2022-07-10T10:01:48;100050.75;;;24.72;37.50
43071;BME280;36278;47.952;21.714;2022-07-10T10:04:15;100055.50;;;24.83;37.60
43071;BME280;36278;47.952;21.714;2022-07-10T10:06:42;100056.19;;;24.66;38.60
43071;BME280;36278;47.952;21.714;2022-07-10T10:09:11;100060.06;;;24.38;38.74
43071;BME280;36278;47.952;21.714;2022-07-10T10:11:40;100052.09;;;24.50;38.40
43071;BME280;36278;47.952;21.714;2022-07-10T10:14:07;100057.47;;;24.63;38.09
43071;BME280;36278;47.952;21.714;2022-07-10T10:16:34;100051.53;;;24.86;37.39
43071;BME280;36278;47.952;21.714;2022-07-10T10:19:01;100051.53;;;24.86;38.00
43071;BME280;36278;47.952;21.714;2022-07-10T10:21:46;100042.50;;;24.60;39.76
43071;BME280;36278;47.952;21.714;2022-07-10T10:24:12;100034.59;;;24.97;38.42
43071;BME280;36278;47.952;21.714;2022-07-10T10:26:39;100038.28;;;24.65;38.14
43071;BME280;36278;47.952;21.714;2022-07-10T10:29:06;100045.81;;;24.63;38.93
43071;BME280;36278;47.952;21.714;2022-07-10T10:31:33;100031.56;;;25.25;37.71
43071;BME280;36278;47.952;21.714;2022-07-10T10:33:59;100034.91;;;25.52;35.52
43071;BME280;36278;47.952;21.714;2022-07-10T10:39:12;100037.16;;;25.24;36.12
43071;BME280;36278;47.952;21.714;2022-07-10T10:41:46;100036.78;;;25.20;36.08
43071;BME280;36278;47.952;21.714;2022-07-10T10:49:17;100046.03;;;24.61;37.78
43071;BME280;36278;47.952;21.714;2022-07-10T10:54:21;100042.06;;;24.57;39.69
43071;BME280;36278;47.952;21.714;2022-07-10T10:59:48;100048.19;;;24.32;41.60
43071;BME280;36278;47.952;21.714;2022-07-10T11:02:27;100048.00;;;24.14;41.59
43071;BME280;36278;47.952;21.714;2022-07-10T11:07:52;100041.56;;;23.82;40.82
43071;BME280;36278;47.952;21.714;2022-07-10T11:10:32;100040.53;;;23.83;41.49
43071;BME280;36278;47.952;21.714;2022-07-10T11:13:01;100046.38;;;23.80;40.72
43071;BME280;36278;47.952;21.714;2022-07-10T11:15:28;100040.53;;;23.63;41.23
43071;BME280;36278;47.952;21.714;2022-07-10T11:20:38;100053.38;;;23.41;42.19
43071;BME280;36278;47.952;21.714;2022-07-10T11:26:07;100080.06;;;22.90;43.38
43071;BME280;36278;47.952;21.714;2022-07-10T11:28:55;100088.38;;;22.54;44.66
43071;BME280;36278;47.952;21.714;2022-07-10T11:31:24;100136.06;;;21.69;49.53
43071;BME280;36278;47.952;21.714;2022-07-10T11:33:55;100138.53;;;21.28;59.26
43071;BME280;36278;47.952;21.714;2022-07-10T11:36:25;100144.88;;;20.09;64.80
43071;BME280;36278;47.952;21.714;2022-07-10T11:39:02;100129.75;;;20.08;65.68
43071;BME280;36278;47.952;21.714;2022-07-10T11:41:28;100122.75;;;19.61;68.43
43071;BME280;36278;47.952;21.714;2022-07-10T11:44:01;100126.75;;;19.34;70.06
43071;BME280;36278;47.952;21.714;2022-07-10T11:46:28;100128.06;;;19.38;68.97
43071;BME280;36278;47.952;21.714;2022-07-10T11:48:55;100130.94;;;19.37;67.85
43071;BME280;36278;47.952;21.714;2022-07-10T11:51:28;100132.50;;;19.00;70.65
43071;BME280;36278;47.952;21.714;2022-07-10T11:54:16;100145.41;;;18.96;73.48
43071;BME280;36278;47.952;21.714;2022-07-10T11:56:49;100152.91;;;18.70;70.42
43071;BME280;36278;47.952;21.714;2022-07-10T11:59:17;100158.44;;;18.68;69.23
43071;BME280;36278;47.952;21.714;2022-07-10T12:01:49;100163.28;;;18.57;69.46
43071;BME280;36278;47.952;21.714;2022-07-10T12:04:17;100163.66;;;18.45;70.35
43071;BME280;36278;47.952;21.714;2022-07-10T12:06:47;100178.78;;;18.22;72.48
43071;BME280;36278;47.952;21.714;2022-07-10T12:09:15;100174.94;;;17.92;73.84
43071;BME280;36278;47.952;21.714;2022-07-10T12:11:42;100176.63;;;17.93;74.55
43071;BME280;36278;47.952;21.714;2022-07-10T12:14:12;100188.13;;;17.69;75.44
43071;BME280;36278;47.952;21.714;2022-07-10T12:16:43;100185.97;;;17.89;75.10
43071;BME280;36278;47.952;21.714;2022-07-10T12:19:12;100199.91;;;18.01;75.37
43071;BME280;36278;47.952;21.714;2022-07-10T12:21:39;100188.50;;;18.07;74.25
43071;BME280;36278;47.952;21.714;2022-07-10T12:24:07;100197.00;;;17.70;73.76
43071;BME280;36278;47.952;21.714;2022-07-10T12:26:34;100206.38;;;17.74;73.84
43071;BME280;36278;47.952;21.714;2022-07-10T12:29:00;100207.03;;;17.59;73.06
43071;BME280;36278;47.952;21.714;2022-07-10T12:31:27;100223.09;;;17.59;72.99
43071;BME280;36278;47.952;21.714;2022-07-10T12:33:56;100226.63;;;17.68;76.72
43071;BME280;36278;47.952;21.714;2022-07-10T12:36:25;100245.81;;;17.47;72.75
43071;BME280;36278;47.952;21.714;2022-07-10T12:38:56;100252.13;;;17.38;77.41
43071;BME280;36278;47.952;21.714;2022-07-10T12:41:23;100249.50;;;17.46;75.71
43071;BME280;36278;47.952;21.714;2022-07-10T12:43:50;100243.69;;;17.67;76.44
43071;BME280;36278;47.952;21.714;2022-07-10T12:46:23;100250.25;;;17.73;75.47
43071;BME280;36278;47.952;21.714;2022-07-10T12:49:07;100249.34;;;17.56;75.78
43071;BME280;36278;47.952;21.714;2022-07-10T12:51:34;100252.38;;;17.61;74.38
43071;BME280;36278;47.952;21.714;2022-07-10T12:54:07;100246.66;;;17.48;75.83
43071;BME280;36278;47.952;21.714;2022-07-10T12:56:34;100243.84;;;17.65;79.54
43071;BME280;36278;47.952;21.714;2022-07-10T12:59:11;100250.00;;;17.50;78.37
43071;BME280;36278;47.952;21.714;2022-07-10T13:01:41;100239.69;;;17.21;78.18
43071;BME280;36278;47.952;21.714;2022-07-10T13:04:07;100240.25;;;17.41;78.13
43071;BME280;36278;47.952;21.714;2022-07-10T13:06:37;100242.50;;;17.53;80.43
43071;BME280;36278;47.952;21.714;2022-07-10T13:09:18;100249.22;;;17.65;79.06
43071;BME280;36278;47.952;21.714;2022-07-10T13:11:43;100246.91;;;17.71;76.47
43071;BME280;36278;47.952;21.714;2022-07-10T13:14:09;100246.41;;;17.75;76.70
43071;BME280;36278;47.952;21.714;2022-07-10T13:16:34;100255.38;;;17.58;78.02
43071;BME280;36278;47.952;21.714;2022-07-10T13:19:00;100255.41;;;17.66;76.41
43071;BME280;36278;47.952;21.714;2022-07-10T13:21:26;100263.34;;;17.76;76.47
43071;BME280;36278;47.952;21.714;2022-07-10T13:23:51;100269.69;;;17.75;78.81
43071;BME280;36278;47.952;21.714;2022-07-10T13:26:16;100269.69;;;17.75;78.61
43071;BME280;36278;47.952;21.714;2022-07-10T13:28:42;100274.38;;;17.73;78.22
43071;BME280;36278;47.952;21.714;2022-07-10T13:31:08;100281.44;;;17.82;76.89
43071;BME280;36278;47.952;21.714;2022-07-10T13:33:34;100276.09;;;17.90;79.12
43071;BME280;36278;47.952;21.714;2022-07-10T13:36:01;100275.09;;;17.99;78.76
43071;BME280;36278;47.952;21.714;2022-07-10T13:38:27;100275.44;;;18.04;78.10
43071;BME280;36278;47.952;21.714;2022-07-10T13:40:53;100281.31;;;18.08;78.74
43071;BME280;36278;47.952;21.714;2022-07-10T13:43:18;100267.06;;;18.15;79.20
43071;BME280;36278;47.952;21.714;2022-07-10T13:45:52;100270.75;;;18.14;80.03
43071;BME280;36278;47.952;21.714;2022-07-10T13:48:18;100265.22;;;18.16;79.19
43071;BME280;36278;47.952;21.714;2022-07-10T13:50:45;100268.78;;;18.25;80.31
43071;BME280;36278;47.952;21.714;2022-07-10T13:53:12;100264.09;;;18.27;79.34
43071;BME280;36278;47.952;21.714;2022-07-10T13:55:39;100253.69;;;18.32;78.84
43071;BME280;36278;47.952;21.714;2022-07-10T13:58:04;100253.19;;;18.28;79.09
43071;BME280;36278;47.952;21.714;2022-07-10T14:00:30;100245.16;;;18.28;79.62
43071;BME280;36278;47.952;21.714;2022-07-10T14:02:56;100247.00;;;18.44;81.19
43071;BME280;36278;47.952;21.714;2022-07-10T14:05:23;100245.50;;;18.41;79.21
43071;BME280;36278;47.952;21.714;2022-07-10T14:07:49;100238.41;;;18.48;80.13
43071;BME280;36278;47.952;21.714;2022-07-10T14:10:15;100226.38;;;18.44;80.77
43071;BME280;36278;47.952;21.714;2022-07-10T14:12:41;100224.88;;;18.42;79.34
43071;BME280;36278;47.952;21.714;2022-07-10T14:15:07;100227.19;;;18.53;80.98
43071;BME280;36278;47.952;21.714;2022-07-10T14:17:33;100221.34;;;18.66;80.86
43071;BME280;36278;47.952;21.714;2022-07-10T14:19:58;100213.59;;;18.55;77.23
43071;BME280;36278;47.952;21.714;2022-07-10T14:22:23;100218.13;;;18.62;76.57
43071;BME280;36278;47.952;21.714;2022-07-10T14:24:50;100195.16;;;18.60;75.91
43071;BME280;36278;47.952;21.714;2022-07-10T14:27:17;100197.31;;;18.81;75.19
43071;BME280;36278;47.952;21.714;2022-07-10T14:29:42;100187.75;;;18.86;71.95
43071;BME280;36278;47.952;21.714;2022-07-10T14:32:08;100185.19;;;18.93;72.71
43071;BME280;36278;47.952;21.714;2022-07-10T14:34:33;100187.38;;;18.89;73.43
43071;BME280;36278;47.952;21.714;2022-07-10T14:37:00;100187.56;;;18.88;73.44
43071;BME280;36278;47.952;21.714;2022-07-10T14:39:26;100179.44;;;19.04;72.77
43071;BME280;36278;47.952;21.714;2022-07-10T14:41:51;100188.63;;;19.18;74.54
43071;BME280;36278;47.952;21.714;2022-07-10T14:44:17;100184.38;;;19.31;73.44
43071;BME280;36278;47.952;21.714;2022-07-10T14:46:42;100189.25;;;19.28;72.32
43071;BME280;36278;47.952;21.714;2022-07-10T14:49:08;100178.16;;;19.31;69.92
43071;BME280;36278;47.952;21.714;2022-07-10T14:51:34;100172.06;;;19.37;70.81
43071;BME280;36278;47.952;21.714;2022-07-10T14:54:00;100176.28;;;19.40;72.08
43071;BME280;36278;47.952;21.714;2022-07-10T14:56:26;100178.41;;;19.44;69.02
43071;BME280;36278;47.952;21.714;2022-07-10T14:58:51;100174.84;;;19.52;67.88
43071;BME280;36278;47.952;21.714;2022-07-10T15:01:17;100171.31;;;19.51;65.88
43071;BME280;36278;47.952;21.714;2022-07-10T15:03:43;100171.56;;;19.42;67.71
43071;BME280;36278;47.952;21.714;2022-07-10T15:06:09;100166.81;;;19.44;66.59
43071;BME280;36278;47.952;21.714;2022-07-10T15:08:34;100167.59;;;19.52;67.14
43071;BME280;36278;47.952;21.714;2022-07-10T15:11:00;100164.91;;;19.60;66.49
43071;BME280;36278;47.952;21.714;2022-07-10T15:13:28;100162.78;;;19.48;66.26
43071;BME280;36278;47.952;21.714;2022-07-10T15:15:54;100165.44;;;19.79;66.74
43071;BME280;36278;47.952;21.714;2022-07-10T15:18:20;100161.25;;;19.99;67.50
43071;BME280;36278;47.952;21.714;2022-07-10T15:20:46;100159.00;;;19.88;61.81
43071;BME280;36278;47.952;21.714;2022-07-10T15:23:12;100154.66;;;20.25;66.15
43071;BME280;36278;47.952;21.714;2022-07-10T15:25:39;100146.75;;;20.46;62.45
43071;BME280;36278;47.952;21.714;2022-07-10T15:28:06;100143.59;;;20.57;60.21
43071;BME280;36278;47.952;21.714;2022-07-10T15:30:35;100141.94;;;20.33;60.43
43071;BME280;36278;47.952;21.714;2022-07-10T15:33:05;100139.13;;;20.50;58.45
43071;BME280;36278;47.952;21.714;2022-07-10T15:35:33;100126.22;;;20.75;60.68
43071;BME280;36278;47.952;21.714;2022-07-10T15:37:59;100127.16;;;20.67;61.27
43071;BME280;36278;47.952;21.714;2022-07-10T15:40:26;100138.00;;;20.74;59.49
43071;BME280;36278;47.952;21.714;2022-07-10T15:42:51;100133.13;;;21.13;60.46
43071;BME280;36278;47.952;21.714;2022-07-10T15:45:17;100127.41;;;21.52;57.33
43071;BME280;36278;47.952;21.714;2022-07-10T15:47:43;100128.06;;;22.04;56.76
43071;BME280;36278;47.952;21.714;2022-07-10T15:50:08;100133.34;;;22.12;55.82
43071;BME280;36278;47.952;21.714;2022-07-10T15:52:34;100132.81;;;22.23;56.36
43071;BME280;36278;47.952;21.714;2022-07-10T15:54:59;100144.84;;;22.21;57.15
43071;BME280;36278;47.952;21.714;2022-07-10T15:57:25;100140.72;;;22.03;57.79
43071;BME280;36278;47.952;21.714;2022-07-10T15:59:50;100146.53;;;22.00;58.15
43071;BME280;36278;47.952;21.714;2022-07-10T16:02:15;100149.63;;;21.76;55.26
43071;BME280;36278;47.952;21.714;2022-07-10T16:04:41;100146.25;;;21.52;58.46
43071;BME280;36278;47.952;21.714;2022-07-10T16:07:06;100151.78;;;21.66;56.31
43071;BME280;36278;47.952;21.714;2022-07-10T16:09:33;100153.47;;;21.67;59.08
43071;BME280;36278;47.952;21.714;2022-07-10T16:11:58;100164.84;;;21.83;59.03
43071;BME280;36278;47.952;21.714;2022-07-10T16:14:24;100156.16;;;21.88;56.22
43071;BME280;36278;47.952;21.714;2022-07-10T16:16:49;100162.97;;;21.84;56.34
43071;BME280;36278;47.952;21.714;2022-07-10T16:19:15;100169.00;;;21.86;57.61
43071;BME280;36278;47.952;21.714;2022-07-10T16:21:41;100154.97;;;21.97;58.84
43071;BME280;36278;47.952;21.714;2022-07-10T16:24:07;100155.25;;;22.02;56.07
43071;BME280;36278;47.952;21.714;2022-07-10T16:26:32;100158.25;;;22.07;57.01
43071;BME280;36278;47.952;21.714;2022-07-10T16:28:59;100160.81;;;22.22;58.38
43071;BME280;36278;47.952;21.714;2022-07-10T16:31:24;100159.22;;;22.28;58.54
43071;BME280;36278;47.952;21.714;2022-07-10T16:33:50;100166.63;;;22.19;57.84
43071;BME280;36278;47.952;21.714;2022-07-10T16:36:16;100168.25;;;21.99;57.28
43071;BME280;36278;47.952;21.714;2022-07-10T16:38:42;100163.00;;;21.91;58.93
43071;BME280;36278;47.952;21.714;2022-07-10T16:41:09;100168.19;;;22.91;56.53
43071;BME280;36278;47.952;21.714;2022-07-10T16:43:35;100168.56;;;22.60;53.54
43071;BME280;36278;47.952;21.714;2022-07-10T16:46:02;100164.22;;;22.31;53.86
43071;BME280;36278;47.952;21.714;2022-07-10T16:48:28;100168.00;;;22.08;54.89
43071;BME280;36278;47.952;21.714;2022-07-10T16:50:55;100168.63;;;22.10;57.55
43071;BME280;36278;47.952;21.714;2022-07-10T16:53:21;100175.91;;;21.74;55.48
43071;BME280;36278;47.952;21.714;2022-07-10T16:55:49;100177.97;;;21.50;58.70
43071;BME280;36278;47.952;21.714;2022-07-10T16:58:15;100162.16;;;20.96;57.45
43071;BME280;36278;47.952;21.714;2022-07-10T17:00:40;100183.59;;;20.75;58.10
43071;BME280;36278;47.952;21.714;2022-07-10T17:03:06;100179.22;;;20.59;59.21
43071;BME280;36278;47.952;21.714;2022-07-10T17:05:32;100180.25;;;20.58;61.18
43071;BME280;36278;47.952;21.714;2022-07-10T17:08:00;100183.06;;;20.42;62.02
43071;BME280;36278;47.952;21.714;2022-07-10T17:10:26;100185.47;;;20.37;61.13
43071;BME280;36278;47.952;21.714;2022-07-10T17:12:52;100191.41;;;20.32;64.82
43071;BME280;36278;47.952;21.714;2022-07-10T17:15:18;100183.59;;;20.23;62.45
43071;BME280;36278;47.952;21.714;2022-07-10T17:17:46;100189.16;;;20.21;61.75
43071;BME280;36278;47.952;21.714;2022-07-10T17:20:12;100192.06;;;20.11;60.33
43071;BME280;36278;47.952;21.714;2022-07-10T17:22:37;100193.34;;;20.01;59.95
43071;BME280;36278;47.952;21.714;2022-07-10T17:25:06;100193.16;;;20.02;61.13
43071;BME280;36278;47.952;21.714;2022-07-10T17:27:32;100196.34;;;20.06;58.59
43071;BME280;36278;47.952;21.714;2022-07-10T17:29:57;100196.59;;;19.96;57.23
43071;BME280;36278;47.952;21.714;2022-07-10T17:32:23;100204.16;;;19.93;56.55
43071;BME280;36278;47.952;21.714;2022-07-10T17:34:48;100203.44;;;19.99;59.71
43071;BME280;36278;47.952;21.714;2022-07-10T17:37:14;100211.22;;;19.94;54.93
43071;BME280;36278;47.952;21.714;2022-07-10T17:39:39;100206.56;;;19.87;55.76
43071;BME280;36278;47.952;21.714;2022-07-10T17:42:05;100207.09;;;19.83;54.91
43071;BME280;36278;47.952;21.714;2022-07-10T17:44:31;100208.03;;;19.67;57.50
43071;BME280;36278;47.952;21.714;2022-07-10T17:46:57;100210.53;;;19.69;56.70
43071;BME280;36278;47.952;21.714;2022-07-10T17:49:23;100208.69;;;19.69;60.83
43071;BME280;36278;47.952;21.714;2022-07-10T17:51:52;100206.78;;;19.78;59.97
43071;BME280;36278;47.952;21.714;2022-07-10T17:54:17;100212.53;;;19.75;57.63
43071;BME280;36278;47.952;21.714;2022-07-10T17:56:43;100210.53;;;19.69;56.10
43071;BME280;36278;47.952;21.714;2022-07-10T17:59:09;100212.22;;;19.70;56.43
43071;BME280;36278;47.952;21.714;2022-07-10T18:01:35;100213.03;;;19.70;57.98
43071;BME280;36278;47.952;21.714;2022-07-10T18:04:02;100217.47;;;19.63;58.42
43071;BME280;36278;47.952;21.714;2022-07-10T18:06:28;100217.69;;;19.45;58.83
43071;BME280;36278;47.952;21.714;2022-07-10T18:08:54;100207.50;;;19.41;57.12
43071;BME280;36278;47.952;21.714;2022-07-10T18:11:20;100208.97;;;19.43;59.97
43071;BME280;36278;47.952;21.714;2022-07-10T18:13:47;100210.19;;;19.41;57.99
43071;BME280;36278;47.952;21.714;2022-07-10T18:16:13;100203.97;;;19.40;58.28
43071;BME280;36278;47.952;21.714;2022-07-10T18:18:43;100205.97;;;19.38;57.96
43071;BME280;36278;47.952;21.714;2022-07-10T18:21:10;100204.94;;;19.47;58.88
43071;BME280;36278;47.952;21.714;2022-07-10T18:23:37;100218.50;;;19.23;59.49
43071;BME280;36278;47.952;21.714;2022-07-10T18:26:03;100213.31;;;19.13;57.61
43071;BME280;36278;47.952;21.714;2022-07-10T18:28:29;100214.03;;;19.07;58.34
43071;BME280;36278;47.952;21.714;2022-07-10T18:30:55;100212.50;;;19.04;59.39
43071;BME280;36278;47.952;21.714;2022-07-10T18:33:21;100219.69;;;19.12;60.55
43071;BME280;36278;47.952;21.714;2022-07-10T18:36:06;100218.03;;;19.11;59.11
43071;BME280;36278;47.952;21.714;2022-07-10T18:38:32;100220.50;;;19.21;60.98
43071;BME280;36278;47.952;21.714;2022-07-10T18:40:59;100218.34;;;19.16;61.06
43071;BME280;36278;47.952;21.714;2022-07-10T18:43:36;100217.47;;;19.24;60.48
43071;BME280;36278;47.952;21.714;2022-07-10T18:46:02;100227.22;;;19.17;59.23
43071;BME280;36278;47.952;21.714;2022-07-10T18:48:28;100229.09;;;19.16;59.98
43071;BME280;36278;47.952;21.714;2022-07-10T18:50:55;100235.97;;;19.11;59.42
43071;BME280;36278;47.952;21.714;2022-07-10T18:53:25;100238.09;;;19.31;64.10
43071;BME280;36278;47.952;21.714;2022-07-10T18:55:51;100245.69;;;19.20;58.86
43071;BME280;36278;47.952;21.714;2022-07-10T18:58:17;100249.91;;;19.14;58.80
43071;BME280;36278;47.952;21.714;2022-07-10T19:00:43;100242.88;;;19.05;59.04
43071;BME280;36278;47.952;21.714;2022-07-10T19:03:09;100252.78;;;19.04;58.46
43071;BME280;36278;47.952;21.714;2022-07-10T19:05:35;100248.13;;;18.90;59.04
43071;BME280;36278;47.952;21.714;2022-07-10T19:08:01;100257.88;;;18.83;61.48
43071;BME280;36278;47.952;21.714;2022-07-10T19:10:27;100259.22;;;18.79;60.89
43071;BME280;36278;47.952;21.714;2022-07-10T19:12:54;100259.38;;;18.86;64.38
43071;BME280;36278;47.952;21.714;2022-07-10T19:15:20;100264.75;;;18.86;60.75
43071;BME280;36278;47.952;21.714;2022-07-10T19:17:46;100273.44;;;18.88;61.42
43071;BME280;36278;47.952;21.714;2022-07-10T19:20:14;100271.13;;;18.76;62.14
43071;BME280;36278;47.952;21.714;2022-07-10T19:22:45;100279.00;;;18.78;60.39
43071;BME280;36278;47.952;21.714;2022-07-10T19:25:13;100273.81;;;18.68;59.63
43071;BME280;36278;47.952;21.714;2022-07-10T19:27:40;100283.38;;;18.71;62.17
43071;BME280;36278;47.952;21.714;2022-07-10T19:30:06;100288.88;;;18.61;60.48
43071;BME280;36278;47.952;21.714;2022-07-10T19:32:38;100279.53;;;18.57;62.10
43071;BME280;36278;47.952;21.714;2022-07-10T19:35:04;100285.03;;;18.56;61.39
43071;BME280;36278;47.952;21.714;2022-07-10T19:37:30;100290.75;;;18.53;62.23
43071;BME280;36278;47.952;21.714;2022-07-10T19:39:56;100284.00;;;18.57;63.28
43071;BME280;36278;47.952;21.714;2022-07-10T19:42:23;100293.78;;;18.58;63.20
43071;BME280;36278;47.952;21.714;2022-07-10T19:44:49;100291.91;;;18.58;62.74
43071;BME280;36278;47.952;21.714;2022-07-10T19:47:15;100298.63;;;18.54;63.84
43071;BME280;36278;47.952;21.714;2022-07-10T19:49:41;100297.94;;;18.52;63.42
43071;BME280;36278;47.952;21.714;2022-07-10T19:52:07;100301.13;;;18.47;66.59
43071;BME280;36278;47.952;21.714;2022-07-10T19:54:33;100300.28;;;18.47;63.90
43071;BME280;36278;47.952;21.714;2022-07-10T19:56:59;100300.13;;;18.48;65.99
43071;BME280;36278;47.952;21.714;2022-07-10T19:59:25;100300.13;;;18.48;63.56
43071;BME280;36278;47.952;21.714;2022-07-10T20:01:51;100303.31;;;18.52;63.46
43071;BME280;36278;47.952;21.714;2022-07-10T20:04:17;100294.91;;;18.39;64.82
43071;BME280;36278;47.952;21.714;2022-07-10T20:06:43;100302.97;;;18.31;65.65
43071;BME280;36278;47.952;21.714;2022-07-10T20:09:08;100301.81;;;18.25;66.51
43071;BME280;36278;47.952;21.714;2022-07-10T20:11:34;100297.09;;;18.11;66.32
43071;BME280;36278;47.952;21.714;2022-07-10T20:14:00;100305.09;;;18.03;66.16
43071;BME280;36278;47.952;21.714;2022-07-10T20:16:27;100314.66;;;18.05;64.74
43071;BME280;36278;47.952;21.714;2022-07-10T20:18:53;100321.31;;;17.85;66.55
43071;BME280;36278;47.952;21.714;2022-07-10T20:21:19;100311.72;;;17.74;66.30
43071;BME280;36278;47.952;21.714;2022-07-10T20:23:45;100326.66;;;17.51;66.91
43071;BME280;36278;47.952;21.714;2022-07-10T20:26:11;100332.56;;;17.54;66.04
43071;BME280;36278;47.952;21.714;2022-07-10T20:28:37;100336.50;;;17.42;67.26
43071;BME280;36278;47.952;21.714;2022-07-10T20:31:03;100334.78;;;17.33;67.62
43071;BME280;36278;47.952;21.714;2022-07-10T20:33:30;100334.78;;;17.33;66.94
43071;BME280;36278;47.952;21.714;2022-07-10T20:35:56;100335.94;;;17.30;66.96
43071;BME280;36278;47.952;21.714;2022-07-10T20:38:41;100349.91;;;17.16;67.85
43071;BME280;36278;47.952;21.714;2022-07-10T20:41:07;100350.22;;;17.13;68.75
43071;BME280;36278;47.952;21.714;2022-07-10T20:43:34;100347.72;;;17.12;69.09
43071;BME280;36278;47.952;21.714;2022-07-10T20:46:01;100347.19;;;17.08;68.91
43071;BME280;36278;47.952;21.714;2022-07-10T20:48:28;100356.03;;;17.08;68.33
43071;BME280;36278;47.952;21.714;2022-07-10T20:50:54;100354.53;;;17.06;69.45
43071;BME280;36278;47.952;21.714;2022-07-10T20:53:20;100357.16;;;16.98;70.09
43071;BME280;36278;47.952;21.714;2022-07-10T20:55:47;100365.84;;;17.00;71.64
43071;BME280;36278;47.952;21.714;2022-07-10T20:58:13;100354.63;;;16.96;71.75
43071;BME280;36278;47.952;21.714;2022-07-10T21:00:39;100355.63;;;16.95;73.95
43071;BME280;36278;47.952;21.714;2022-07-10T21:03:04;100359.78;;;16.90;74.22
43071;BME280;36278;47.952;21.714;2022-07-10T21:05:30;100371.25;;;16.82;74.95
43071;BME280;36278;47.952;21.714;2022-07-10T21:08:01;100361.88;;;16.78;73.83
43071;BME280;36278;47.952;21.714;2022-07-10T21:10:28;100367.25;;;16.68;76.23
43071;BME280;36278;47.952;21.714;2022-07-10T21:13:14;100363.13;;;16.56;76.47
43071;BME280;36278;47.952;21.714;2022-07-10T21:15:42;100366.81;;;16.55;75.81
43071;BME280;36278;47.952;21.714;2022-07-10T21:18:09;100361.16;;;16.58;77.86
43071;BME280;36278;47.952;21.714;2022-07-10T21:20:35;100366.19;;;16.61;77.44
43071;BME280;36278;47.952;21.714;2022-07-10T21:23:02;100367.88;;;16.62;76.11
43071;BME280;36278;47.952;21.714;2022-07-10T21:25:28;100371.41;;;16.63;74.75
43071;BME280;36278;47.952;21.714;2022-07-10T21:27:54;100370.69;;;16.61;75.45
43071;BME280;36278;47.952;21.714;2022-07-10T21:30:21;100365.66;;;16.58;75.48
43071;BME280;36278;47.952;21.714;2022-07-10T21:32:47;100374.00;;;16.54;75.24
43071;BME280;36278;47.952;21.714;2022-07-10T21:35:13;100369.09;;;16.50;76.71
43071;BME280;36278;47.952;21.714;2022-07-10T21:37:39;100378.19;;;16.57;75.68
43071;BME280;36278;47.952;21.714;2022-07-10T21:40:06;100373.84;;;16.56;76.90
43071;BME280;36278;47.952;21.714;2022-07-10T21:42:34;100376.97;;;16.51;76.99
43071;BME280;36278;47.952;21.714;2022-07-10T21:45:00;100376.97;;;16.51;76.47
43071;BME280;36278;47.952;21.714;2022-07-10T21:47:26;100372.59;;;16.50;77.93
43071;BME280;36278;47.952;21.714;2022-07-10T21:49:52;100372.75;;;16.49;77.08
43071;BME280;36278;47.952;21.714;2022-07-10T21:52:18;100374.84;;;16.55;78.00
43071;BME280;36278;47.952;21.714;2022-07-10T21:54:44;100375.84;;;16.54;76.44
43071;BME280;36278;47.952;21.714;2022-07-10T21:57:10;100373.16;;;16.54;74.99
43071;BME280;36278;47.952;21.714;2022-07-10T21:59:36;100377.13;;;16.50;72.56
43071;BME280;36278;47.952;21.714;2022-07-10T22:02:02;100376.03;;;16.61;73.78
43071;BME280;36278;47.952;21.714;2022-07-10T22:04:28;100373.47;;;16.69;73.05
43071;BME280;36278;47.952;21.714;2022-07-10T22:06:53;100381.19;;;16.72;71.74
43071;BME280;36278;47.952;21.714;2022-07-10T22:09:20;100375.69;;;16.73;69.80
43071;BME280;36278;47.952;21.714;2022-07-10T22:11:46;100376.84;;;16.71;68.23
43071;BME280;36278;47.952;21.714;2022-07-10T22:14:12;100372.50;;;16.70;67.95
43071;BME280;36278;47.952;21.714;2022-07-10T22:16:38;100385.72;;;16.71;66.70
43071;BME280;36278;47.952;21.714;2022-07-10T22:19:03;100383.88;;;16.72;66.51
43071;BME280;36278;47.952;21.714;2022-07-10T22:21:29;100387.63;;;16.79;66.82
43071;BME280;36278;47.952;21.714;2022-07-10T22:23:55;100390.81;;;16.83;67.20
43071;BME280;36278;47.952;21.714;2022-07-10T22:26:21;100391.50;;;16.85;66.69
43071;BME280;36278;47.952;21.714;2022-07-10T22:28:47;100389.53;;;16.87;66.86
43071;BME280;36278;47.952;21.714;2022-07-10T22:31:12;100386.13;;;16.85;65.64
43071;BME280;36278;47.952;21.714;2022-07-10T22:33:52;100387.03;;;16.93;65.49
43071;BME280;36278;47.952;21.714;2022-07-10T22:36:20;100393.88;;;16.88;64.78
43071;BME280;36278;47.952;21.714;2022-07-10T22:38:46;100394.50;;;16.81;66.82
43071;BME280;36278;47.952;21.714;2022-07-10T22:41:12;100397.31;;;16.80;67.80
43071;BME280;36278;47.952;21.714;2022-07-10T22:43:39;100394.81;;;16.78;67.23